createdAt,value
2022-12-06T00:07:52.102Z,80.56
2022-12-06T00:16:16.136Z,80.69
2022-12-06T00:24:37.890Z,80.94
2022-12-06T00:32:59.317Z,80.87
2022-12-06T00:41:23.375Z,80.65
2022-12-06T00:49:44.964Z,80.89
2022-12-06T00:58:06.657Z,80.72
2022-12-06T01:06:31.495Z,80.55
2022-12-06T01:14:53.037Z,80.54
2022-12-06T01:23:15.037Z,80.55
2022-12-06T01:31:38.931Z,80.75
2022-12-06T01:40:01.261Z,80.72
2022-12-06T01:48:25.919Z,80.51
2022-12-06T01:56:49.563Z,80.67
2022-12-06T02:05:12.531Z,80.91
2022-12-06T02:13:35.857Z,80.77
2022-12-06T02:22:37.774Z,80.56
2022-12-06T02:31:06.577Z,80.73
2022-12-06T02:39:57.033Z,80.60
2022-12-06T02:48:21.635Z,80.81
2022-12-06T02:56:43.059Z,80.94
2022-12-06T03:05:14.532Z,80.80
2022-12-06T03:13:58.571Z,80.81
2022-12-06T03:22:44.317Z,80.81
2022-12-06T03:31:11.343Z,80.90
2022-12-06T03:40:07.430Z,80.74
2022-12-06T03:48:34.247Z,80.68
2022-12-06T03:56:55.793Z,80.72
2022-12-06T04:05:18.266Z,80.78
2022-12-06T04:13:40.264Z,81.06
2022-12-06T04:22:40.404Z,80.84
2022-12-06T04:31:22.466Z,80.94
2022-12-06T04:39:44.618Z,81.11
2022-12-06T04:48:06.113Z,81.03
2022-12-06T04:56:27.983Z,81.10
2022-12-06T05:04:49.420Z,81.13
2022-12-06T05:13:10.927Z,80.89
2022-12-06T05:21:33.767Z,80.83
2022-12-06T05:29:55.196Z,81.02
2022-12-06T05:38:18.021Z,80.93
2022-12-06T05:46:39.500Z,80.84
2022-12-06T05:55:00.971Z,81.13
2022-12-06T06:03:22.503Z,80.98
2022-12-06T06:11:43.997Z,81.12
2022-12-06T06:20:07.583Z,80.93
2022-12-06T06:28:29.041Z,81.13
2022-12-06T06:36:51.024Z,80.89
2022-12-06T06:45:13.361Z,80.83
2022-12-06T06:53:35.823Z,81.16
2022-12-06T07:01:57.492Z,81.15
2022-12-06T07:10:19.362Z,81.24
2022-12-06T07:18:44.278Z,81.10
2022-12-06T07:27:05.807Z,80.96
2022-12-06T07:35:42.334Z,81.23
2022-12-06T07:44:29.795Z,81.11
2022-12-06T07:52:51.384Z,81.24
2022-12-06T08:01:13.183Z,81.26
2022-12-06T08:09:34.659Z,81.13
2022-12-06T08:17:56.125Z,81.21
2022-12-06T08:26:18.148Z,81.24
2022-12-06T08:34:39.899Z,81.34
2022-12-06T08:43:01.869Z,81.40
2022-12-06T08:51:23.903Z,81.54
2022-12-06T08:59:46.291Z,81.45
2022-12-06T09:08:07.869Z,81.76
2022-12-06T09:16:30.043Z,81.42
2022-12-06T09:24:51.809Z,81.52
2022-12-06T09:33:13.242Z,81.54
2022-12-06T09:42:16.512Z,81.72
2022-12-06T09:50:53.195Z,81.71
2022-12-06T09:59:36.952Z,81.76
2022-12-06T10:08:10.784Z,81.79
2022-12-06T10:16:49.845Z,81.73
2022-12-06T10:25:31.618Z,81.77
2022-12-06T10:34:02.200Z,81.68
2022-12-06T10:42:32.261Z,81.69
2022-12-06T10:51:02.543Z,81.78
2022-12-06T10:59:51.141Z,81.65
2022-12-06T11:08:32.792Z,81.90
2022-12-06T11:17:15.452Z,81.85
2022-12-06T11:26:20.425Z,81.74
2022-12-06T11:34:49.536Z,81.92
2022-12-06T11:43:24.304Z,81.87
2022-12-06T11:51:45.860Z,82.00
2022-12-06T12:00:15.836Z,82.01
2022-12-06T12:08:37.564Z,82.09
2022-12-06T12:17:01.786Z,82.20
2022-12-06T12:25:29.519Z,82.01
2022-12-06T12:34:13.922Z,82.21
2022-12-06T12:42:39.512Z,82.02
2022-12-06T12:51:09.371Z,82.03
2022-12-06T12:59:37.342Z,81.91
2022-12-06T13:08:21.820Z,82.25
2022-12-06T13:16:45.398Z,82.31
2022-12-06T13:25:07.798Z,82.13
2022-12-06T13:33:35.689Z,81.89
2022-12-06T13:42:18.767Z,81.92
2022-12-06T13:50:40.295Z,82.21
2022-12-06T13:59:24.993Z,81.92
2022-12-06T14:07:47.052Z,82.07
2022-12-06T14:16:14.651Z,81.90
2022-12-06T14:24:40.274Z,81.94
2022-12-06T14:33:16.478Z,82.03
2022-12-06T14:41:57.521Z,82.17
2022-12-06T14:50:30.187Z,82.06
2022-12-06T14:58:56.304Z,82.17
2022-12-06T15:07:42.434Z,82.07
2022-12-06T15:16:07.613Z,82.01
2022-12-06T15:24:30.984Z,82.12
2022-12-06T15:32:54.379Z,82.05
2022-12-06T15:41:25.296Z,82.08
2022-12-06T15:49:48.844Z,81.91
2022-12-06T15:58:13.886Z,82.07
2022-12-06T16:06:37.302Z,82.13
2022-12-06T16:15:00.413Z,82.00
2022-12-06T16:32:26.816Z,82.22
2022-12-06T16:40:48.452Z,81.96
2022-12-06T16:58:02.945Z,82.09
2022-12-06T17:06:26.355Z,81.90
2022-12-06T17:14:48.050Z,81.94
2022-12-06T17:23:09.833Z,81.87
2022-12-06T17:31:31.492Z,81.83
2022-12-06T17:39:53.095Z,81.87
2022-12-06T17:48:14.582Z,81.83
2022-12-06T17:56:47.372Z,81.97
2022-12-06T18:05:09.218Z,82.06
2022-12-06T18:13:30.863Z,82.00
2022-12-06T18:21:52.512Z,82.25
2022-12-06T18:30:15.308Z,82.06
2022-12-06T18:38:37.100Z,82.14
2022-12-06T18:46:59.094Z,82.11
2022-12-06T18:55:20.671Z,82.14
2022-12-06T19:03:42.801Z,82.11
2022-12-06T19:12:05.855Z,82.11
2022-12-06T19:20:27.874Z,82.18
2022-12-06T19:28:50.320Z,82.08
2022-12-06T19:37:11.863Z,82.17
2022-12-06T19:45:33.316Z,82.32
2022-12-06T19:53:57.739Z,82.04
2022-12-06T20:02:19.395Z,81.95
2022-12-06T20:10:43.435Z,82.28
2022-12-06T20:19:06.841Z,81.90
2022-12-06T20:27:50.185Z,82.15
2022-12-06T20:36:17.960Z,82.25
2022-12-06T20:44:39.418Z,82.19
2022-12-06T21:02:50.435Z,82.26
2022-12-06T21:11:22.540Z,82.19
2022-12-06T21:19:45.229Z,82.36
2022-12-06T21:28:06.683Z,82.11
2022-12-06T21:36:28.580Z,82.14
2022-12-06T21:44:50.136Z,82.21
2022-12-06T21:53:11.559Z,82.00
2022-12-06T22:01:33.511Z,81.96
2022-12-06T22:09:55.006Z,81.92
2022-12-06T22:18:16.592Z,81.98
2022-12-06T22:26:38.321Z,81.91
2022-12-06T22:34:59.762Z,81.89
2022-12-06T22:43:21.296Z,81.85
2022-12-06T22:51:42.828Z,81.93
2022-12-06T23:00:05.896Z,82.15
2022-12-06T23:08:27.468Z,81.89
2022-12-06T23:16:49.515Z,81.91
2022-12-06T23:25:10.970Z,81.85
2022-12-06T23:33:33.519Z,82.04
2022-12-06T23:41:55.128Z,82.04
2022-12-06T23:50:16.680Z,81.91
2022-12-06T23:58:38.668Z,81.98
